sensor_id;sensor_type;location;lat;lon;timestamp;P1;durP1;ratioP1;P2;durP2;ratioP2
49175;SDS011;35012;47.200;9.748;2023-01-01T00:00:39;42.33;;;31.97;;
49175;SDS011;35012;47.200;9.748;2023-01-01T00:03:05;47.97;;;35.50;;
49175;SDS011;35012;47.200;9.748;2023-01-01T00:05:30;69.77;;;50.67;;
49175;SDS011;35012;47.200;9.748;2023-01-01T00:07:55;55.83;;;38.93;;
49175;SDS011;35012;47.200;9.748;2023-01-01T00:10:21;46.50;;;31.60;;
49175;SDS011;35012;47.200;9.748;2023-01-01T00:12:53;39.10;;;27.63;;
49175;SDS011;35012;47.200;9.748;2023-01-01T00:15:19;33.90;;;25.60;;
49175;SDS011;35012;47.200;9.748;2023-01-01T00:17:44;28.73;;;20.33;;
49175;SDS011;35012;47.200;9.748;2023-01-01T00:20:10;26.40;;;21.33;;
49175;SDS011;35012;47.200;9.748;2023-01-01T00:22:36;26.77;;;20.23;;
49175;SDS011;35012;47.200;9.748;2023-01-01T00:25:02;34.73;;;24.73;;
49175;SDS011;35012;47.200;9.748;2023-01-01T00:27:27;42.00;;;28.10;;
49175;SDS011;35012;47.200;9.748;2023-01-01T00:29:53;30.60;;;23.30;;
49175;SDS011;35012;47.200;9.748;2023-01-01T00:32:18;34.50;;;23.93;;
49175;SDS011;35012;47.200;9.748;2023-01-01T00:34:44;35.10;;;24.60;;
49175;SDS011;35012;47.200;9.748;2023-01-01T00:37:09;28.60;;;21.23;;
49175;SDS011;35012;47.200;9.748;2023-01-01T00:39:35;25.17;;;19.80;;
49175;SDS011;35012;47.200;9.748;2023-01-01T00:42:01;21.43;;;16.00;;
49175;SDS011;35012;47.200;9.748;2023-01-01T00:44:26;12.53;;;9.83;;
49175;SDS011;35012;47.200;9.748;2023-01-01T00:46:52;8.93;;;6.33;;
49175;SDS011;35012;47.200;9.748;2023-01-01T00:49:17;8.00;;;7.07;;
49175;SDS011;35012;47.200;9.748;2023-01-01T00:51:43;12.63;;;9.60;;
49175;SDS011;35012;47.200;9.748;2023-01-01T00:54:08;10.97;;;8.67;;
49175;SDS011;35012;47.200;9.748;2023-01-01T00:56:33;9.53;;;6.90;;
49175;SDS011;35012;47.200;9.748;2023-01-01T00:58:59;8.90;;;7.00;;
49175;SDS011;35012;47.200;9.748;2023-01-01T01:01:25;10.43;;;7.23;;
49175;SDS011;35012;47.200;9.748;2023-01-01T01:03:51;10.47;;;8.13;;
49175;SDS011;35012;47.200;9.748;2023-01-01T01:06:16;15.43;;;12.13;;
49175;SDS011;35012;47.200;9.748;2023-01-01T01:08:43;10.70;;;7.63;;
49175;SDS011;35012;47.200;9.748;2023-01-01T01:11:17;14.57;;;10.67;;
49175;SDS011;35012;47.200;9.748;2023-01-01T01:13:43;16.50;;;12.27;;
49175;SDS011;35012;47.200;9.748;2023-01-01T01:16:11;14.23;;;10.60;;
49175;SDS011;35012;47.200;9.748;2023-01-01T01:18:38;14.17;;;11.20;;
49175;SDS011;35012;47.200;9.748;2023-01-01T01:21:04;7.73;;;5.93;;
49175;SDS011;35012;47.200;9.748;2023-01-01T01:23:29;9.63;;;6.70;;
49175;SDS011;35012;47.200;9.748;2023-01-01T01:26:05;8.27;;;6.70;;
49175;SDS011;35012;47.200;9.748;2023-01-01T01:28:31;8.13;;;5.70;;
49175;SDS011;35012;47.200;9.748;2023-01-01T01:30:58;9.47;;;7.20;;
49175;SDS011;35012;47.200;9.748;2023-01-01T01:33:24;10.83;;;8.77;;
49175;SDS011;35012;47.200;9.748;2023-01-01T01:35:50;15.03;;;11.00;;
49175;SDS011;35012;47.200;9.748;2023-01-01T01:38:18;14.13;;;9.37;;
49175;SDS011;35012;47.200;9.748;2023-01-01T01:40:44;11.30;;;8.20;;
49175;SDS011;35012;47.200;9.748;2023-01-01T01:43:20;12.03;;;8.17;;
49175;SDS011;35012;47.200;9.748;2023-01-01T01:45:46;13.03;;;9.27;;
49175;SDS011;35012;47.200;9.748;2023-01-01T01:48:11;13.50;;;9.70;;
49175;SDS011;35012;47.200;9.748;2023-01-01T01:50:37;13.07;;;8.77;;
49175;SDS011;35012;47.200;9.748;2023-01-01T01:53:15;26.67;;;14.47;;
49175;SDS011;35012;47.200;9.748;2023-01-01T01:55:45;15.90;;;11.03;;
49175;SDS011;35012;47.200;9.748;2023-01-01T01:58:14;11.27;;;7.50;;
49175;SDS011;35012;47.200;9.748;2023-01-01T02:00:40;8.00;;;5.20;;
49175;SDS011;35012;47.200;9.748;2023-01-01T02:03:10;2.93;;;2.20;;
49175;SDS011;35012;47.200;9.748;2023-01-01T02:05:38;3.17;;;1.90;;
49175;SDS011;35012;47.200;9.748;2023-01-01T02:08:05;6.70;;;4.80;;
49175;SDS011;35012;47.200;9.748;2023-01-01T02:10:31;5.10;;;4.33;;
49175;SDS011;35012;47.200;9.748;2023-01-01T02:12:56;6.67;;;4.43;;
49175;SDS011;35012;47.200;9.748;2023-01-01T02:15:22;5.53;;;4.07;;
49175;SDS011;35012;47.200;9.748;2023-01-01T02:18:11;8.73;;;4.00;;
49175;SDS011;35012;47.200;9.748;2023-01-01T02:20:40;7.07;;;4.33;;
49175;SDS011;35012;47.200;9.748;2023-01-01T02:28:43;5.70;;;3.77;;
49175;SDS011;35012;47.200;9.748;2023-01-01T02:31:27;3.70;;;2.50;;
49175;SDS011;35012;47.200;9.748;2023-01-01T02:33:58;3.60;;;2.80;;
49175;SDS011;35012;47.200;9.748;2023-01-01T02:36:25;3.10;;;2.60;;
49175;SDS011;35012;47.200;9.748;2023-01-01T02:38:53;4.43;;;2.80;;
49175;SDS011;35012;47.200;9.748;2023-01-01T02:41:30;4.30;;;2.10;;
49175;SDS011;35012;47.200;9.748;2023-01-01T02:44:03;3.10;;;2.27;;
49175;SDS011;35012;47.200;9.748;2023-01-01T02:46:29;2.87;;;2.20;;
49175;SDS011;35012;47.200;9.748;2023-01-01T02:48:56;3.07;;;2.50;;
49175;SDS011;35012;47.200;9.748;2023-01-01T02:59:16;5.20;;;3.17;;
49175;SDS011;35012;47.200;9.748;2023-01-01T03:15:54;2.00;;;1.50;;
49175;SDS011;35012;47.200;9.748;2023-01-01T03:19:26;1.63;;;1.00;;
49175;SDS011;35012;47.200;9.748;2023-01-01T03:21:39;1.47;;;0.90;;
49175;SDS011;35012;47.200;9.748;2023-01-01T03:24:08;1.40;;;1.10;;
49175;SDS011;35012;47.200;9.748;2023-01-01T03:26:37;1.90;;;1.47;;
49175;SDS011;35012;47.200;9.748;2023-01-01T03:29:03;3.27;;;1.40;;
49175;SDS011;35012;47.200;9.748;2023-01-01T03:31:29;1.50;;;1.20;;
49175;SDS011;35012;47.200;9.748;2023-01-01T03:33:57;2.67;;;1.67;;
49175;SDS011;35012;47.200;9.748;2023-01-01T03:36:31;3.70;;;2.20;;
49175;SDS011;35012;47.200;9.748;2023-01-01T03:39:04;2.27;;;1.37;;
49175;SDS011;35012;47.200;9.748;2023-01-01T03:46:34;1.23;;;0.90;;
49175;SDS011;35012;47.200;9.748;2023-01-01T03:49:00;0.87;;;0.70;;
49175;SDS011;35012;47.200;9.748;2023-01-01T03:54:09;1.50;;;1.10;;
49175;SDS011;35012;47.200;9.748;2023-01-01T03:56:47;1.30;;;1.00;;
49175;SDS011;35012;47.200;9.748;2023-01-01T03:59:19;1.10;;;1.00;;
49175;SDS011;35012;47.200;9.748;2023-01-01T04:01:47;1.10;;;0.67;;
49175;SDS011;35012;47.200;9.748;2023-01-01T04:04:16;1.47;;;0.90;;
49175;SDS011;35012;47.200;9.748;2023-01-01T04:06:41;1.47;;;1.00;;
49175;SDS011;35012;47.200;9.748;2023-01-01T04:09:08;1.37;;;0.83;;
49175;SDS011;35012;47.200;9.748;2023-01-01T04:11:39;0.97;;;0.77;;
49175;SDS011;35012;47.200;9.748;2023-01-01T04:14:28;1.13;;;0.70;;
49175;SDS011;35012;47.200;9.748;2023-01-01T04:16:58;1.53;;;1.00;;
49175;SDS011;35012;47.200;9.748;2023-01-01T04:19:25;0.83;;;0.80;;
49175;SDS011;35012;47.200;9.748;2023-01-01T04:21:50;0.70;;;0.60;;
49175;SDS011;35012;47.200;9.748;2023-01-01T04:24:16;1.03;;;0.73;;
49175;SDS011;35012;47.200;9.748;2023-01-01T04:26:41;1.40;;;1.07;;
49175;SDS011;35012;47.200;9.748;2023-01-01T04:29:07;2.47;;;1.57;;
49175;SDS011;35012;47.200;9.748;2023-01-01T04:31:33;3.03;;;1.27;;
49175;SDS011;35012;47.200;9.748;2023-01-01T04:33:59;4.50;;;1.33;;
49175;SDS011;35012;47.200;9.748;2023-01-01T04:36:25;0.97;;;0.77;;
49175;SDS011;35012;47.200;9.748;2023-01-01T04:38:50;1.90;;;0.70;;
49175;SDS011;35012;47.200;9.748;2023-01-01T04:41:16;0.80;;;0.70;;
49175;SDS011;35012;47.200;9.748;2023-01-01T04:43:43;1.10;;;0.70;;
49175;SDS011;35012;47.200;9.748;2023-01-01T04:46:11;0.70;;;0.70;;
49175;SDS011;35012;47.200;9.748;2023-01-01T04:48:36;1.33;;;0.70;;
49175;SDS011;35012;47.200;9.748;2023-01-01T04:51:03;0.70;;;0.50;;
49175;SDS011;35012;47.200;9.748;2023-01-01T04:53:29;2.20;;;0.80;;
49175;SDS011;35012;47.200;9.748;2023-01-01T04:56:02;1.30;;;0.93;;
49175;SDS011;35012;47.200;9.748;2023-01-01T04:58:31;2.07;;;1.03;;
49175;SDS011;35012;47.200;9.748;2023-01-01T05:00:57;1.57;;;1.20;;
49175;SDS011;35012;47.200;9.748;2023-01-01T05:03:23;1.43;;;0.80;;
49175;SDS011;35012;47.200;9.748;2023-01-01T05:06:04;2.20;;;0.93;;
49175;SDS011;35012;47.200;9.748;2023-01-01T05:08:35;1.73;;;1.10;;
49175;SDS011;35012;47.200;9.748;2023-01-01T05:11:02;3.00;;;1.50;;
49175;SDS011;35012;47.200;9.748;2023-01-01T05:13:39;1.40;;;1.00;;
49175;SDS011;35012;47.200;9.748;2023-01-01T05:16:07;1.57;;;1.10;;
49175;SDS011;35012;47.200;9.748;2023-01-01T05:18:35;1.40;;;1.20;;
49175;SDS011;35012;47.200;9.748;2023-01-01T05:21:02;1.37;;;0.90;;
49175;SDS011;35012;47.200;9.748;2023-01-01T05:23:29;2.40;;;1.00;;
49175;SDS011;35012;47.200;9.748;2023-01-01T05:25:54;0.80;;;0.77;;
49175;SDS011;35012;47.200;9.748;2023-01-01T05:28:20;1.23;;;1.13;;
49175;SDS011;35012;47.200;9.748;2023-01-01T05:30:47;1.10;;;1.00;;
49175;SDS011;35012;47.200;9.748;2023-01-01T05:33:13;0.60;;;0.60;;
49175;SDS011;35012;47.200;9.748;2023-01-01T05:35:38;1.57;;;0.80;;
49175;SDS011;35012;47.200;9.748;2023-01-01T05:38:04;1.47;;;0.60;;
49175;SDS011;35012;47.200;9.748;2023-01-01T05:40:29;1.77;;;0.40;;
49175;SDS011;35012;47.200;9.748;2023-01-01T05:42:55;0.80;;;0.50;;
49175;SDS011;35012;47.200;9.748;2023-01-01T05:45:20;1.43;;;0.50;;
49175;SDS011;35012;47.200;9.748;2023-01-01T05:47:46;1.67;;;0.50;;
49175;SDS011;35012;47.200;9.748;2023-01-01T05:50:12;0.50;;;0.50;;
49175;SDS011;35012;47.200;9.748;2023-01-01T05:52:37;1.83;;;0.63;;
49175;SDS011;35012;47.200;9.748;2023-01-01T05:55:03;1.83;;;0.90;;
49175;SDS011;35012;47.200;9.748;2023-01-01T05:57:28;0.60;;;0.60;;
49175;SDS011;35012;47.200;9.748;2023-01-01T05:59:54;1.53;;;0.50;;
49175;SDS011;35012;47.200;9.748;2023-01-01T06:02:19;0.73;;;0.57;;
49175;SDS011;35012;47.200;9.748;2023-01-01T06:04:45;3.17;;;0.70;;
49175;SDS011;35012;47.200;9.748;2023-01-01T06:07:10;1.93;;;1.00;;
49175;SDS011;35012;47.200;9.748;2023-01-01T06:09:36;1.30;;;1.10;;
49175;SDS011;35012;47.200;9.748;2023-01-01T06:12:01;2.17;;;0.80;;
49175;SDS011;35012;47.200;9.748;2023-01-01T06:14:27;1.47;;;1.20;;
49175;SDS011;35012;47.200;9.748;2023-01-01T06:16:52;1.20;;;1.07;;
49175;SDS011;35012;47.200;9.748;2023-01-01T06:19:18;0.80;;;0.70;;
49175;SDS011;35012;47.200;9.748;2023-01-01T06:21:43;1.53;;;0.80;;
49175;SDS011;35012;47.200;9.748;2023-01-01T06:24:09;0.83;;;0.70;;
49175;SDS011;35012;47.200;9.748;2023-01-01T06:26:34;1.10;;;1.00;;
49175;SDS011;35012;47.200;9.748;2023-01-01T06:29:00;1.53;;;1.30;;
49175;SDS011;35012;47.200;9.748;2023-01-01T06:31:27;1.20;;;1.10;;
49175;SDS011;35012;47.200;9.748;2023-01-01T06:33:53;1.00;;;0.90;;
49175;SDS011;35012;47.200;9.748;2023-01-01T06:36:19;1.30;;;1.00;;
49175;SDS011;35012;47.200;9.748;2023-01-01T06:38:47;0.90;;;0.80;;
49175;SDS011;35012;47.200;9.748;2023-01-01T06:41:18;1.83;;;1.00;;
49175;SDS011;35012;47.200;9.748;2023-01-01T06:43:45;1.10;;;1.00;;
49175;SDS011;35012;47.200;9.748;2023-01-01T06:46:24;1.00;;;0.90;;
49175;SDS011;35012;47.200;9.748;2023-01-01T06:48:55;1.13;;;0.90;;
49175;SDS011;35012;47.200;9.748;2023-01-01T06:51:43;2.77;;;0.90;;
49175;SDS011;35012;47.200;9.748;2023-01-01T06:54:08;1.33;;;0.87;;
49175;SDS011;35012;47.200;9.748;2023-01-01T06:56:34;1.30;;;1.20;;
49175;SDS011;35012;47.200;9.748;2023-01-01T06:59:00;1.10;;;1.00;;
49175;SDS011;35012;47.200;9.748;2023-01-01T07:01:27;1.70;;;1.20;;
49175;SDS011;35012;47.200;9.748;2023-01-01T07:04:00;1.27;;;0.80;;
49175;SDS011;35012;47.200;9.748;2023-01-01T07:06:28;0.70;;;0.50;;
49175;SDS011;35012;47.200;9.748;2023-01-01T07:08:54;1.90;;;0.70;;
49175;SDS011;35012;47.200;9.748;2023-01-01T07:11:20;1.37;;;0.60;;
49175;SDS011;35012;47.200;9.748;2023-01-01T07:13:46;2.27;;;1.43;;
49175;SDS011;35012;47.200;9.748;2023-01-01T07:16:11;2.30;;;2.00;;
49175;SDS011;35012;47.200;9.748;2023-01-01T07:18:37;2.27;;;1.93;;
49175;SDS011;35012;47.200;9.748;2023-01-01T07:21:03;2.50;;;1.90;;
49175;SDS011;35012;47.200;9.748;2023-01-01T07:23:30;1.83;;;1.60;;
49175;SDS011;35012;47.200;9.748;2023-01-01T07:25:57;3.73;;;1.70;;
49175;SDS011;35012;47.200;9.748;2023-01-01T07:28:23;1.80;;;1.40;;
49175;SDS011;35012;47.200;9.748;2023-01-01T07:30:49;1.97;;;1.77;;
49175;SDS011;35012;47.200;9.748;2023-01-01T07:33:17;1.60;;;1.30;;
49175;SDS011;35012;47.200;9.748;2023-01-01T07:35:45;0.87;;;0.70;;
49175;SDS011;35012;47.200;9.748;2023-01-01T07:38:11;1.30;;;0.80;;
49175;SDS011;35012;47.200;9.748;2023-01-01T07:40:36;0.83;;;0.40;;
49175;SDS011;35012;47.200;9.748;2023-01-01T07:43:02;0.40;;;0.40;;
49175;SDS011;35012;47.200;9.748;2023-01-01T07:45:28;2.53;;;0.80;;
49175;SDS011;35012;47.200;9.748;2023-01-01T07:47:54;0.83;;;0.50;;
49175;SDS011;35012;47.200;9.748;2023-01-01T07:50:21;0.40;;;0.40;;
49175;SDS011;35012;47.200;9.748;2023-01-01T07:52:47;0.73;;;0.50;;
49175;SDS011;35012;47.200;9.748;2023-01-01T07:55:13;0.70;;;0.70;;
49175;SDS011;35012;47.200;9.748;2023-01-01T07:57:40;1.23;;;1.00;;
49175;SDS011;35012;47.200;9.748;2023-01-01T08:00:09;2.03;;;1.40;;
49175;SDS011;35012;47.200;9.748;2023-01-01T08:02:36;2.07;;;0.90;;
49175;SDS011;35012;47.200;9.748;2023-01-01T08:05:01;2.10;;;1.60;;
49175;SDS011;35012;47.200;9.748;2023-01-01T08:07:27;1.93;;;1.50;;
49175;SDS011;35012;47.200;9.748;2023-01-01T08:09:52;2.50;;;1.77;;
49175;SDS011;35012;47.200;9.748;2023-01-01T08:12:18;2.23;;;1.63;;
49175;SDS011;35012;47.200;9.748;2023-01-01T08:14:43;3.73;;;1.90;;
49175;SDS011;35012;47.200;9.748;2023-01-01T08:17:09;1.60;;;1.50;;
49175;SDS011;35012;47.200;9.748;2023-01-01T08:19:34;1.50;;;1.40;;
49175;SDS011;35012;47.200;9.748;2023-01-01T08:22:00;1.53;;;1.30;;
49175;SDS011;35012;47.200;9.748;2023-01-01T08:24:25;2.03;;;1.50;;
49175;SDS011;35012;47.200;9.748;2023-01-01T08:26:51;2.50;;;1.40;;
49175;SDS011;35012;47.200;9.748;2023-01-01T08:29:16;3.07;;;1.10;;
49175;SDS011;35012;47.200;9.748;2023-01-01T08:31:42;1.30;;;1.00;;
49175;SDS011;35012;47.200;9.748;2023-01-01T08:34:07;1.80;;;1.00;;
49175;SDS011;35012;47.200;9.748;2023-01-01T08:36:33;1.93;;;1.47;;
49175;SDS011;35012;47.200;9.748;2023-01-01T08:38:59;2.70;;;1.47;;
49175;SDS011;35012;47.200;9.748;2023-01-01T08:41:24;1.30;;;1.10;;
49175;SDS011;35012;47.200;9.748;2023-01-01T08:43:50;1.07;;;0.90;;
49175;SDS011;35012;47.200;9.748;2023-01-01T08:46:15;1.40;;;1.07;;
49175;SDS011;35012;47.200;9.748;2023-01-01T08:48:41;0.90;;;0.73;;
49175;SDS011;35012;47.200;9.748;2023-01-01T08:51:08;1.67;;;0.90;;
49175;SDS011;35012;47.200;9.748;2023-01-01T08:53:33;0.97;;;0.67;;
49175;SDS011;35012;47.200;9.748;2023-01-01T08:56:00;0.90;;;0.70;;
49175;SDS011;35012;47.200;9.748;2023-01-01T08:58:28;1.23;;;0.80;;
49175;SDS011;35012;47.200;9.748;2023-01-01T09:00:54;2.50;;;1.20;;
49175;SDS011;35012;47.200;9.748;2023-01-01T09:03:20;1.87;;;1.23;;
49175;SDS011;35012;47.200;9.748;2023-01-01T09:05:45;3.17;;;1.30;;
49175;SDS011;35012;47.200;9.748;2023-01-01T09:08:11;1.47;;;1.10;;
49175;SDS011;35012;47.200;9.748;2023-01-01T09:10:37;0.70;;;0.70;;
49175;SDS011;35012;47.200;9.748;2023-01-01T09:13:03;1.10;;;1.00;;
49175;SDS011;35012;47.200;9.748;2023-01-01T09:15:28;1.33;;;0.80;;
49175;SDS011;35012;47.200;9.748;2023-01-01T09:17:54;1.00;;;0.70;;
49175;SDS011;35012;47.200;9.748;2023-01-01T09:20:19;0.90;;;0.70;;
49175;SDS011;35012;47.200;9.748;2023-01-01T09:22:45;1.20;;;1.00;;
49175;SDS011;35012;47.200;9.748;2023-01-01T09:25:10;1.10;;;0.67;;
49175;SDS011;35012;47.200;9.748;2023-01-01T09:27:36;2.20;;;2.00;;
49175;SDS011;35012;47.200;9.748;2023-01-01T09:30:02;2.27;;;1.97;;
49175;SDS011;35012;47.200;9.748;2023-01-01T09:32:28;3.53;;;1.90;;
49175;SDS011;35012;47.200;9.748;2023-01-01T09:34:54;3.90;;;1.67;;
49175;SDS011;35012;47.200;9.748;2023-01-01T09:37:21;2.67;;;2.00;;
49175;SDS011;35012;47.200;9.748;2023-01-01T09:39:47;2.17;;;1.80;;
49175;SDS011;35012;47.200;9.748;2023-01-01T09:47:28;3.07;;;2.70;;
49175;SDS011;35012;47.200;9.748;2023-01-01T09:50:18;2.90;;;2.50;;
49175;SDS011;35012;47.200;9.748;2023-01-01T09:52:59;3.37;;;2.90;;
49175;SDS011;35012;47.200;9.748;2023-01-01T09:58:39;3.10;;;2.80;;
49175;SDS011;35012;47.200;9.748;2023-01-01T10:04:01;3.07;;;2.60;;
49175;SDS011;35012;47.200;9.748;2023-01-01T10:06:29;3.60;;;2.93;;
49175;SDS011;35012;47.200;9.748;2023-01-01T10:11:57;4.93;;;2.80;;
49175;SDS011;35012;47.200;9.748;2023-01-01T10:14:24;2.50;;;2.10;;
49175;SDS011;35012;47.200;9.748;2023-01-01T10:16:53;2.73;;;2.27;;
49175;SDS011;35012;47.200;9.748;2023-01-01T10:19:30;1.50;;;1.30;;
49175;SDS011;35012;47.200;9.748;2023-01-01T10:22:08;1.87;;;1.67;;
49175;SDS011;35012;47.200;9.748;2023-01-01T10:27:40;5.33;;;2.20;;
49175;SDS011;35012;47.200;9.748;2023-01-01T10:30:22;2.70;;;1.67;;
49175;SDS011;35012;47.200;9.748;2023-01-01T10:32:49;1.40;;;1.30;;
49175;SDS011;35012;47.200;9.748;2023-01-01T10:35:34;1.40;;;1.00;;
49175;SDS011;35012;47.200;9.748;2023-01-01T10:38:04;1.80;;;1.20;;
49175;SDS011;35012;47.200;9.748;2023-01-01T10:40:30;2.53;;;2.07;;
49175;SDS011;35012;47.200;9.748;2023-01-01T10:42:57;9.10;;;6.53;;
49175;SDS011;35012;47.200;9.748;2023-01-01T10:50:57;5.47;;;4.40;;
49175;SDS011;35012;47.200;9.748;2023-01-01T10:53:48;3.67;;;2.10;;
49175;SDS011;35012;47.200;9.748;2023-01-01T10:56:15;2.03;;;1.73;;
49175;SDS011;35012;47.200;9.748;2023-01-01T10:58:43;2.90;;;2.00;;
49175;SDS011;35012;47.200;9.748;2023-01-01T11:06:33;3.80;;;2.80;;
49175;SDS011;35012;47.200;9.748;2023-01-01T11:09:02;4.20;;;3.63;;
49175;SDS011;35012;47.200;9.748;2023-01-01T11:11:53;5.17;;;3.60;;
49175;SDS011;35012;47.200;9.748;2023-01-01T11:14:24;4.07;;;2.30;;
49175;SDS011;35012;47.200;9.748;2023-01-01T11:16:51;3.37;;;2.33;;
49175;SDS011;35012;47.200;9.748;2023-01-01T11:19:22;4.73;;;3.10;;
49175;SDS011;35012;47.200;9.748;2023-01-01T11:21:49;4.80;;;2.60;;
49175;SDS011;35012;47.200;9.748;2023-01-01T11:24:19;2.60;;;1.97;;
49175;SDS011;35012;47.200;9.748;2023-01-01T11:26:46;3.60;;;2.03;;
49175;SDS011;35012;47.200;9.748;2023-01-01T11:31:40;2.30;;;1.57;;
49175;SDS011;35012;47.200;9.748;2023-01-01T11:34:40;2.23;;;1.70;;
49175;SDS011;35012;47.200;9.748;2023-01-01T11:39:51;3.23;;;2.73;;
49175;SDS011;35012;47.200;9.748;2023-01-01T11:42:25;2.47;;;1.60;;
49175;SDS011;35012;47.200;9.748;2023-01-01T11:44:53;2.57;;;1.30;;
49175;SDS011;35012;47.200;9.748;2023-01-01T11:47:38;2.57;;;1.07;;
49175;SDS011;35012;47.200;9.748;2023-01-01T11:52:52;1.93;;;1.50;;
49175;SDS011;35012;47.200;9.748;2023-01-01T11:57:55;3.23;;;2.57;;
49175;SDS011;35012;47.200;9.748;2023-01-01T12:00:23;5.40;;;3.40;;
49175;SDS011;35012;47.200;9.748;2023-01-01T12:02:58;3.30;;;3.00;;
49175;SDS011;35012;47.200;9.748;2023-01-01T12:05:26;4.23;;;3.10;;
49175;SDS011;35012;47.200;9.748;2023-01-01T12:08:07;5.50;;;3.40;;
49175;SDS011;35012;47.200;9.748;2023-01-01T12:10:50;4.43;;;3.77;;
49175;SDS011;35012;47.200;9.748;2023-01-01T12:13:22;8.30;;;7.50;;
49175;SDS011;35012;47.200;9.748;2023-01-01T12:15:57;4.07;;;3.53;;
49175;SDS011;35012;47.200;9.748;2023-01-01T12:18:28;4.33;;;3.63;;
49175;SDS011;35012;47.200;9.748;2023-01-01T12:21:04;5.25;;;3.00;;
49175;SDS011;35012;47.200;9.748;2023-01-01T12:23:36;2.90;;;2.63;;
49175;SDS011;35012;47.200;9.748;2023-01-01T12:26:10;5.13;;;3.45;;
49175;SDS011;35012;47.200;9.748;2023-01-01T12:28:52;5.03;;;2.72;;
49175;SDS011;35012;47.200;9.748;2023-01-01T12:31:42;3.10;;;2.80;;
49175;SDS011;35012;47.200;9.748;2023-01-01T12:34:13;4.53;;;2.75;;
49175;SDS011;35012;47.200;9.748;2023-01-01T12:41:51;1.75;;;1.50;;
49175;SDS011;35012;47.200;9.748;2023-01-01T12:47:51;1.50;;;1.40;;
49175;SDS011;35012;47.200;9.748;2023-01-01T12:58:31;2.25;;;1.38;;
49175;SDS011;35012;47.200;9.748;2023-01-01T13:01:06;1.50;;;1.40;;
49175;SDS011;35012;47.200;9.748;2023-01-01T13:03:53;1.10;;;1.00;;
49175;SDS011;35012;47.200;9.748;2023-01-01T13:07:07;1.75;;;1.02;;
49175;SDS011;35012;47.200;9.748;2023-01-01T13:09:14;1.45;;;1.00;;
49175;SDS011;35012;47.200;9.748;2023-01-01T13:11:41;1.80;;;1.70;;
49175;SDS011;35012;47.200;9.748;2023-01-01T13:14:07;1.58;;;0.95;;
49175;SDS011;35012;47.200;9.748;2023-01-01T13:16:36;1.33;;;1.23;;
49175;SDS011;35012;47.200;9.748;2023-01-01T13:19:03;0.70;;;0.70;;
49175;SDS011;35012;47.200;9.748;2023-01-01T13:21:29;1.23;;;1.13;;
49175;SDS011;35012;47.200;9.748;2023-01-01T13:24:03;2.43;;;1.30;;
49175;SDS011;35012;47.200;9.748;2023-01-01T13:26:36;1.87;;;0.87;;
49175;SDS011;35012;47.200;9.748;2023-01-01T13:39:54;1.70;;;1.53;;
49175;SDS011;35012;47.200;9.748;2023-01-01T13:43:02;1.10;;;0.97;;
49175;SDS011;35012;47.200;9.748;2023-01-01T13:50:43;1.37;;;1.00;;
49175;SDS011;35012;47.200;9.748;2023-01-01T13:53:29;2.77;;;1.10;;
49175;SDS011;35012;47.200;9.748;2023-01-01T13:56:32;2.57;;;1.50;;
49175;SDS011;35012;47.200;9.748;2023-01-01T14:01:53;1.63;;;0.97;;
49175;SDS011;35012;47.200;9.748;2023-01-01T14:07:13;1.53;;;1.30;;
49175;SDS011;35012;47.200;9.748;2023-01-01T14:09:45;1.80;;;1.50;;
49175;SDS011;35012;47.200;9.748;2023-01-01T14:12:15;2.50;;;1.67;;
49175;SDS011;35012;47.200;9.748;2023-01-01T14:14:42;1.40;;;1.10;;
49175;SDS011;35012;47.200;9.748;2023-01-01T14:17:07;1.20;;;1.07;;
49175;SDS011;35012;47.200;9.748;2023-01-01T14:19:33;2.13;;;1.93;;
49175;SDS011;35012;47.200;9.748;2023-01-01T14:21:59;1.60;;;1.10;;
49175;SDS011;35012;47.200;9.748;2023-01-01T14:24:25;3.10;;;1.40;;
49175;SDS011;35012;47.200;9.748;2023-01-01T14:26:51;1.50;;;1.30;;
49175;SDS011;35012;47.200;9.748;2023-01-01T14:29:24;2.03;;;1.53;;
49175;SDS011;35012;47.200;9.748;2023-01-01T14:31:52;6.47;;;3.60;;
49175;SDS011;35012;47.200;9.748;2023-01-01T14:34:30;5.20;;;3.50;;
49175;SDS011;35012;47.200;9.748;2023-01-01T14:36:57;3.60;;;2.90;;
49175;SDS011;35012;47.200;9.748;2023-01-01T14:39:30;5.13;;;2.90;;
49175;SDS011;35012;47.200;9.748;2023-01-01T14:42:01;4.60;;;2.60;;
49175;SDS011;35012;47.200;9.748;2023-01-01T14:44:33;2.97;;;2.20;;
49175;SDS011;35012;47.200;9.748;2023-01-01T14:47:00;4.30;;;2.43;;
49175;SDS011;35012;47.200;9.748;2023-01-01T14:49:29;2.73;;;1.70;;
49175;SDS011;35012;47.200;9.748;2023-01-01T14:52:02;3.00;;;1.73;;
49175;SDS011;35012;47.200;9.748;2023-01-01T14:54:33;2.10;;;1.63;;
49175;SDS011;35012;47.200;9.748;2023-01-01T14:57:01;1.30;;;1.10;;
49175;SDS011;35012;47.200;9.748;2023-01-01T14:59:30;2.70;;;1.73;;
49175;SDS011;35012;47.200;9.748;2023-01-01T15:01:59;2.73;;;1.77;;
49175;SDS011;35012;47.200;9.748;2023-01-01T15:04:34;2.73;;;1.83;;
49175;SDS011;35012;47.200;9.748;2023-01-01T15:07:00;3.33;;;2.43;;
49175;SDS011;35012;47.200;9.748;2023-01-01T15:09:26;4.10;;;2.57;;
49175;SDS011;35012;47.200;9.748;2023-01-01T15:11:52;6.27;;;4.87;;
49175;SDS011;35012;47.200;9.748;2023-01-01T15:16:58;3.93;;;2.90;;
49175;SDS011;35012;47.200;9.748;2023-01-01T15:19:24;6.07;;;4.00;;
49175;SDS011;35012;47.200;9.748;2023-01-01T15:21:50;5.20;;;3.80;;
49175;SDS011;35012;47.200;9.748;2023-01-01T15:24:17;3.53;;;2.63;;
49175;SDS011;35012;47.200;9.748;2023-01-01T15:26:51;3.07;;;2.70;;
49175;SDS011;35012;47.200;9.748;2023-01-01T15:29:31;10.50;;;3.93;;
49175;SDS011;35012;47.200;9.748;2023-01-01T15:32:01;4.17;;;3.40;;
49175;SDS011;35012;47.200;9.748;2023-01-01T15:34:41;4.63;;;3.30;;
49175;SDS011;35012;47.200;9.748;2023-01-01T15:37:14;7.17;;;4.30;;
49175;SDS011;35012;47.200;9.748;2023-01-01T15:39:44;4.23;;;3.40;;
49175;SDS011;35012;47.200;9.748;2023-01-01T15:42:37;4.00;;;3.00;;
49175;SDS011;35012;47.200;9.748;2023-01-01T15:47:51;4.07;;;3.60;;
49175;SDS011;35012;47.200;9.748;2023-01-01T15:50:25;5.87;;;3.97;;
49175;SDS011;35012;47.200;9.748;2023-01-01T15:52:58;4.20;;;2.80;;
49175;SDS011;35012;47.200;9.748;2023-01-01T15:55:26;6.17;;;2.90;;
49175;SDS011;35012;47.200;9.748;2023-01-01T15:57:53;3.87;;;2.77;;
49175;SDS011;35012;47.200;9.748;2023-01-01T16:00:20;4.37;;;2.50;;
49175;SDS011;35012;47.200;9.748;2023-01-01T16:02:47;3.93;;;2.57;;
49175;SDS011;35012;47.200;9.748;2023-01-01T16:05:17;9.60;;;5.23;;
49175;SDS011;35012;47.200;9.748;2023-01-01T16:07:45;10.37;;;6.20;;
49175;SDS011;35012;47.200;9.748;2023-01-01T16:10:14;7.80;;;5.60;;
49175;SDS011;35012;47.200;9.748;2023-01-01T16:12:40;9.03;;;5.90;;
49175;SDS011;35012;47.200;9.748;2023-01-01T16:15:06;8.93;;;5.93;;
49175;SDS011;35012;47.200;9.748;2023-01-01T16:17:32;8.33;;;5.87;;
49175;SDS011;35012;47.200;9.748;2023-01-01T16:19:58;8.00;;;5.83;;
49175;SDS011;35012;47.200;9.748;2023-01-01T16:22:23;9.23;;;6.37;;
49175;SDS011;35012;47.200;9.748;2023-01-01T16:24:49;9.00;;;6.20;;
49175;SDS011;35012;47.200;9.748;2023-01-01T16:27:14;10.43;;;6.50;;
49175;SDS011;35012;47.200;9.748;2023-01-01T16:29:40;10.43;;;6.87;;
49175;SDS011;35012;47.200;9.748;2023-01-01T16:32:05;9.47;;;6.90;;
49175;SDS011;35012;47.200;9.748;2023-01-01T16:34:43;10.47;;;6.90;;
49175;SDS011;35012;47.200;9.748;2023-01-01T16:37:09;9.40;;;6.33;;
49175;SDS011;35012;47.200;9.748;2023-01-01T16:39:34;9.67;;;7.57;;
49175;SDS011;35012;47.200;9.748;2023-01-01T16:41:59;12.47;;;8.93;;
49175;SDS011;35012;47.200;9.748;2023-01-01T16:44:25;12.00;;;9.37;;
49175;SDS011;35012;47.200;9.748;2023-01-01T16:46:50;13.17;;;8.53;;
49175;SDS011;35012;47.200;9.748;2023-01-01T16:49:16;10.50;;;8.03;;
49175;SDS011;35012;47.200;9.748;2023-01-01T16:51:41;11.50;;;8.37;;
49175;SDS011;35012;47.200;9.748;2023-01-01T16:54:07;10.40;;;7.33;;